Time;durP1;ratioP1;P1;durP2;ratioP2;P2;SDS_P1;SDS_P2;PMS_P1;PMS_P2;Temp;Humidity;BMP_temperature;BMP_pressure;BME280_temperature;BME280_humidity;BME280_pressure;Samples;Min_cycle;Max_cycle;Signal;HPM_P1;HPM_P2
2023/11/21 00:01:58;;;;;;;18.95;6.95;;;;;;;;;;5067546;27;20135;-58
2023/11/21 00:04:24;;;;;;;19.02;8.50;;;;;;;;;;5071588;27;20095;-58
2023/11/21 00:06:52;;;;;;;34.10;13.98;;;;;;;;;;5073023;28;20318;-62
2023/11/21 00:09:19;;;;;;;35.17;13.57;;;;;;;;;;5072440;28;20048;-61
2023/11/21 00:11:48;;;;;;;61.10;26.05;;;;;;;;;;5080139;28;20084;-60
2023/11/21 00:14:15;;;;;;;47.05;21.15;;;;;;;;;;5062086;28;20145;-62
2023/11/21 00:16:42;;;;;;;26.83;9.98;;;;;;;;;;5078473;28;20062;-59
2023/11/21 00:19:08;;;;;;;39.85;15.05;;;;;;;;;;5067932;28;20058;-59
2023/11/21 00:21:35;;;;;;;31.85;11.15;;;;;;;;;;5058619;28;20143;-61
2023/11/21 00:24:01;;;;;;;23.58;9.25;;;;;;;;;;5050118;28;20052;-60
2023/11/21 00:26:28;;;;;;;21.17;7.20;;;;;;;;;;5054351;28;20107;-61
2023/11/21 00:28:56;;;;;;;16.27;7.20;;;;;;;;;;5057380;28;20053;-61
2023/11/21 00:31:21;;;;;;;18.08;7.03;;;;;;;;;;5061070;28;20051;-60
2023/11/21 00:33:48;;;;;;;19.20;7.40;;;;;;;;;;5060940;28;20056;-60
2023/11/21 00:36:15;;;;;;;18.83;7.00;;;;;;;;;;5045567;28;20080;-58
2023/11/21 00:38:41;;;;;;;17.52;6.38;;;;;;;;;;5057202;28;20120;-61
2023/11/21 00:41:08;;;;;;;17.85;6.72;;;;;;;;;;5060683;28;20052;-59
2023/11/21 00:43:35;;;;;;;15.75;6.40;;;;;;;;;;5058107;28;20048;-58
2023/11/21 00:46:07;;;;;;;19.08;6.50;;;;;;;;;;5052586;28;20117;-59
2023/11/21 00:48:33;;;;;;;12.27;5.63;;;;;;;;;;5051570;28;20049;-59
2023/11/21 00:51:00;;;;;;;16.42;6.70;;;;;;;;;;5075304;28;20245;-59
2023/11/21 00:53:27;;;;;;;18.67;6.35;;;;;;;;;;5063541;28;20060;-59
2023/11/21 00:55:56;;;;;;;16.17;6.47;;;;;;;;;;5051600;28;20088;-56
2023/11/21 00:58:23;;;;;;;18.33;6.05;;;;;;;;;;5053601;28;20080;-61
2023/11/21 01:00:50;;;;;;;14.15;5.78;;;;;;;;;;5060018;28;20114;-59
2023/11/21 01:03:18;;;;;;;13.02;5.47;;;;;;;;;;5059312;28;20048;-61
2023/11/21 01:05:44;;;;;;;17.40;5.88;;;;;;;;;;5073224;28;20061;-60
2023/11/21 01:08:11;;;;;;;19.80;6.43;;;;;;;;;;5057271;28;20577;-61
2023/11/21 01:10:38;;;;;;;14.70;6.13;;;;;;;;;;5058166;28;20076;-61
2023/11/21 01:13:05;;;;;;;12.38;5.07;;;;;;;;;;5073391;28;20138;-59
2023/11/21 01:15:32;;;;;;;18.40;7.05;;;;;;;;;;5059196;28;20091;-60
2023/11/21 01:17:58;;;;;;;16.25;6.13;;;;;;;;;;5051005;28;20165;-58
2023/11/21 01:20:26;;;;;;;17.30;6.82;;;;;;;;;;5058550;28;20071;-58
2023/11/21 01:22:53;;;;;;;13.80;5.93;;;;;;;;;;5062699;28;20578;-56
2023/11/21 01:25:21;;;;;;;15.38;6.38;;;;;;;;;;5055198;28;20114;-56
2023/11/21 01:27:47;;;;;;;17.52;6.40;;;;;;;;;;5060496;28;20076;-59
2023/11/21 01:30:14;;;;;;;17.35;6.25;;;;;;;;;;5069160;28;20140;-57
2023/11/21 01:32:41;;;;;;;17.38;6.55;;;;;;;;;;5078460;28;20110;-51
2023/11/21 01:35:09;;;;;;;15.40;6.32;;;;;;;;;;5044864;28;20139;-58
2023/11/21 01:37:38;;;;;;;16.67;6.13;;;;;;;;;;5059845;28;20091;-57
2023/11/21 01:40:08;;;;;;;14.70;6.00;;;;;;;;;;5050666;28;20076;-63
2023/11/21 01:42:35;;;;;;;13.50;5.90;;;;;;;;;;5063732;28;20055;-59
2023/11/21 01:45:04;;;;;;;13.70;5.78;;;;;;;;;;5067996;28;20071;-58
2023/11/21 01:47:31;;;;;;;16.02;6.07;;;;;;;;;;5057658;28;20074;-57
2023/11/21 01:49:58;;;;;;;18.98;6.93;;;;;;;;;;5068463;28;20108;-60
2023/11/21 01:52:25;;;;;;;16.85;6.72;;;;;;;;;;5074900;28;20330;-62
2023/11/21 01:54:53;;;;;;;13.32;5.45;;;;;;;;;;5050443;28;20067;-55
2023/11/21 01:57:20;;;;;;;16.15;6.57;;;;;;;;;;5058216;28;20056;-53
2023/11/21 01:59:49;;;;;;;16.23;6.88;;;;;;;;;;5056648;28;20052;-63
2023/11/21 02:02:16;;;;;;;19.17;6.47;;;;;;;;;;5050569;28;20056;-57
2023/11/21 02:04:43;;;;;;;18.25;6.55;;;;;;;;;;5046088;28;20057;-61
2023/11/21 02:07:10;;;;;;;14.80;5.93;;;;;;;;;;5037598;28;20080;-59
2023/11/21 02:09:38;;;;;;;13.60;5.88;;;;;;;;;;5055357;28;20072;-63
2023/11/21 02:12:07;;;;;;;13.65;6.22;;;;;;;;;;5030373;28;20118;-61
2023/11/21 02:14:33;;;;;;;14.57;6.20;;;;;;;;;;5042659;28;20128;-62
2023/11/21 02:17:00;;;;;;;20.00;6.80;;;;;;;;;;5067692;28;20096;-55
2023/11/21 02:19:29;;;;;;;15.70;6.65;;;;;;;;;;5055753;28;20086;-57
2023/11/21 02:21:59;;;;;;;;;;;;;;;;;;5054991;28;20052;-64
2023/11/21 02:24:27;;;;;;;14.45;5.80;;;;;;;;;;5069062;28;19930;-61
2023/11/21 02:26:54;;;;;;;12.23;5.32;;;;;;;;;;5054950;28;20140;-56
2023/11/21 02:29:22;;;;;;;14.27;6.78;;;;;;;;;;5055890;28;20139;-61
2023/11/21 02:31:48;;;;;;;13.10;6.00;;;;;;;;;;5056951;28;20052;-58
2023/11/21 02:34:15;;;;;;;13.50;5.65;;;;;;;;;;5020739;28;20934;-63
2023/11/21 02:36:43;;;;;;;13.70;5.97;;;;;;;;;;5052234;28;20062;-55
2023/11/21 02:39:10;;;;;;;12.90;5.47;;;;;;;;;;5056333;28;20151;-55
2023/11/21 02:41:38;;;;;;;12.95;5.47;;;;;;;;;;5059720;28;20056;-61
2023/11/21 02:44:06;;;;;;;11.45;5.22;;;;;;;;;;5049070;28;20140;-64
2023/11/21 02:46:34;;;;;;;14.43;5.75;;;;;;;;;;5043965;28;20067;-60
2023/11/21 02:49:00;;;;;;;13.60;6.00;;;;;;;;;;5072867;28;20056;-58
2023/11/21 02:51:27;;;;;;;13.25;5.95;;;;;;;;;;5060025;28;20057;-61
2023/11/21 02:53:54;;;;;;;14.15;6.53;;;;;;;;;;5069348;28;20134;-61
2023/11/21 02:56:21;;;;;;;15.57;6.38;;;;;;;;;;5063295;28;20585;-59
2023/11/21 02:58:50;;;;;;;13.77;5.82;;;;;;;;;;5057547;28;20139;-63
2023/11/21 03:01:16;;;;;;;15.27;5.95;;;;;;;;;;5050834;28;20203;-60
2023/11/21 03:03:43;;;;;;;11.63;5.55;;;;;;;;;;5034970;28;20053;-59
2023/11/21 03:06:10;;;;;;;11.35;5.38;;;;;;;;;;5033392;28;20140;-55
2023/11/21 03:08:36;;;;;;;11.43;5.22;;;;;;;;;;5056607;28;20052;-62
2023/11/21 03:11:03;;;;;;;12.43;5.53;;;;;;;;;;5064994;28;20518;-63
2023/11/21 03:13:30;;;;;;;16.38;5.57;;;;;;;;;;5063141;28;20060;-60
2023/11/21 03:15:58;;;;;;;12.93;5.85;;;;;;;;;;5051740;28;20067;-62
2023/11/21 03:18:25;;;;;;;14.43;5.55;;;;;;;;;;5050921;28;20052;-61
2023/11/21 03:20:53;;;;;;;13.77;5.35;;;;;;;;;;5058921;28;20068;-56
2023/11/21 03:23:19;;;;;;;15.73;4.82;;;;;;;;;;5057374;28;20156;-58
2023/11/21 03:25:46;;;;;;;14.95;5.60;;;;;;;;;;5053343;28;20052;-59
2023/11/21 03:28:13;;;;;;;10.65;5.07;;;;;;;;;;5048726;28;20083;-60
2023/11/21 03:30:39;;;;;;;12.88;5.53;;;;;;;;;;5060344;28;20056;-62
2023/11/21 03:33:07;;;;;;;13.35;5.43;;;;;;;;;;5060739;28;20074;-63
2023/11/21 03:35:34;;;;;;;14.30;5.43;;;;;;;;;;5050996;28;20060;-59
2023/11/21 03:38:01;;;;;;;13.90;5.22;;;;;;;;;;5056269;28;20048;-60
2023/11/21 03:40:28;;;;;;;12.38;5.18;;;;;;;;;;5053206;28;20087;-58
2023/11/21 03:42:54;;;;;;;13.65;5.13;;;;;;;;;;5074735;28;20058;-62
2023/11/21 03:45:21;;;;;;;11.88;5.53;;;;;;;;;;5039203;28;20122;-59
2023/11/21 03:47:47;;;;;;;13.23;5.45;;;;;;;;;;5038216;28;20080;-59
2023/11/21 03:50:15;;;;;;;12.63;5.13;;;;;;;;;;5031470;28;20063;-56
2023/11/21 03:52:42;;;;;;;16.08;5.95;;;;;;;;;;5045812;28;20128;-63
2023/11/21 03:55:10;;;;;;;12.45;5.53;;;;;;;;;;5051779;28;20045;-60
2023/11/21 03:57:37;;;;;;;14.87;6.00;;;;;;;;;;5040798;28;20064;-59
2023/11/21 04:00:08;;;;;;;15.98;5.40;;;;;;;;;;5037811;28;20303;-60
2023/11/21 04:02:35;;;;;;;14.80;5.63;;;;;;;;;;5040768;28;20071;-64
2023/11/21 04:05:01;;;;;;;16.27;5.38;;;;;;;;;;5048038;28;20156;-55
2023/11/21 04:07:29;;;;;;;14.93;5.97;;;;;;;;;;5061066;28;20135;-60
2023/11/21 04:09:56;;;;;;;14.05;5.78;;;;;;;;;;5062437;28;20072;-57
2023/11/21 04:12:23;;;;;;;12.50;5.63;;;;;;;;;;5056042;28;20045;-63
2023/11/21 04:14:49;;;;;;;13.32;5.45;;;;;;;;;;5054344;28;20060;-55
2023/11/21 04:17:19;;;;;;;13.75;6.22;;;;;;;;;;5059204;28;20135;-58
2023/11/21 04:19:46;;;;;;;13.82;5.47;;;;;;;;;;5059831;28;20152;-61
2023/11/21 04:22:12;;;;;;;12.68;5.35;;;;;;;;;;5053257;28;20575;-60
2023/11/21 04:24:40;;;;;;;11.55;4.97;;;;;;;;;;5056422;28;20145;-57
2023/11/21 04:27:07;;;;;;;14.13;5.78;;;;;;;;;;5062180;28;20076;-62
2023/11/21 04:29:34;;;;;;;17.13;5.57;;;;;;;;;;5070257;28;20139;-62
2023/11/21 04:32:02;;;;;;;15.27;6.13;;;;;;;;;;5060153;28;20086;-59
2023/11/21 04:34:30;;;;;;;15.33;5.20;;;;;;;;;;5050786;28;20145;-60
2023/11/21 04:36:57;;;;;;;12.02;5.53;;;;;;;;;;5060988;28;20052;-60
2023/11/21 04:39:24;;;;;;;13.65;4.95;;;;;;;;;;5059730;28;20135;-56
2023/11/21 04:41:52;;;;;;;14.02;5.70;;;;;;;;;;5061256;28;20052;-65
2023/11/21 04:44:18;;;;;;;14.52;6.05;;;;;;;;;;5047935;28;20056;-63
2023/11/21 04:46:45;;;;;;;13.27;5.82;;;;;;;;;;5059355;28;20053;-60
2023/11/21 04:49:12;;;;;;;14.23;6.30;;;;;;;;;;5060639;28;20693;-60
2023/11/21 04:51:38;;;;;;;14.15;5.80;;;;;;;;;;5074792;28;20060;-63
2023/11/21 04:54:05;;;;;;;16.35;5.55;;;;;;;;;;5050815;28;20163;-62
2023/11/21 04:56:32;;;;;;;12.00;5.47;;;;;;;;;;5057854;28;20095;-62
2023/11/21 04:59:00;;;;;;;14.48;6.00;;;;;;;;;;5077031;28;20044;-58
2023/11/21 05:01:27;;;;;;;12.02;5.03;;;;;;;;;;5072524;28;20052;-61
2023/11/21 05:03:53;;;;;;;13.18;5.15;;;;;;;;;;5069876;28;20056;-62
2023/11/21 05:06:20;;;;;;;15.57;5.72;;;;;;;;;;5053383;28;20056;-55
2023/11/21 05:08:47;;;;;;;15.63;5.70;;;;;;;;;;5069942;28;20060;-60
2023/11/21 05:11:24;;;;;;;13.00;5.28;;;;;;;;;;5058121;28;20052;-54
2023/11/21 05:13:51;;;;;;;10.82;4.68;;;;;;;;;;5055312;28;20504;-61
2023/11/21 05:16:19;;;;;;;10.68;4.80;;;;;;;;;;5049573;28;20221;-62
2023/11/21 05:18:45;;;;;;;13.20;5.57;;;;;;;;;;5062546;28;20058;-60
2023/11/21 05:21:12;;;;;;;11.60;4.95;;;;;;;;;;5074506;28;20152;-59
2023/11/21 05:23:39;;;;;;;10.10;4.35;;;;;;;;;;5054405;28;20114;-58
2023/11/21 05:26:07;;;;;;;11.48;4.93;;;;;;;;;;5056521;28;20056;-61
2023/11/21 05:28:33;;;;;;;13.90;5.00;;;;;;;;;;5057611;28;20095;-63
2023/11/21 05:31:02;;;;;;;12.00;4.82;;;;;;;;;;5075275;28;20076;-60
2023/11/21 05:33:30;;;;;;;13.95;5.07;;;;;;;;;;5062002;28;20044;-58
2023/11/21 05:35:56;;;;;;;14.07;5.20;;;;;;;;;;5052960;28;20064;-60
2023/11/21 05:38:23;;;;;;;11.40;4.72;;;;;;;;;;5052463;28;20052;-55
2023/11/21 05:40:50;;;;;;;12.07;5.40;;;;;;;;;;5064811;28;20051;-61
2023/11/21 05:43:17;;;;;;;18.30;5.53;;;;;;;;;;5058014;28;20171;-56
2023/11/21 05:45:44;;;;;;;15.77;5.55;;;;;;;;;;5056111;28;20052;-60
2023/11/21 05:48:11;;;;;;;12.57;4.80;;;;;;;;;;5051413;28;20067;-61
2023/11/21 05:50:39;;;;;;;14.35;4.65;;;;;;;;;;5074734;28;20056;-60
2023/11/21 05:53:05;;;;;;;12.38;4.60;;;;;;;;;;5064055;28;20048;-63
2023/11/21 05:55:32;;;;;;;11.65;4.90;;;;;;;;;;5049583;28;20140;-58
2023/11/21 05:57:58;;;;;;;10.35;4.38;;;;;;;;;;5061103;28;20090;-64
2023/11/21 06:00:27;;;;;;;13.10;4.80;;;;;;;;;;5053581;28;20052;-60
2023/11/21 06:02:54;;;;;;;11.98;5.00;;;;;;;;;;5078707;28;20069;-58
2023/11/21 06:05:24;;;;;;;15.55;5.25;;;;;;;;;;5056433;28;20053;-55
2023/11/21 06:07:53;;;;;;;11.05;4.72;;;;;;;;;;5062817;28;20075;-59
2023/11/21 06:10:21;;;;;;;13.30;4.82;;;;;;;;;;5057964;28;20048;-52
2023/11/21 06:12:48;;;;;;;13.35;5.47;;;;;;;;;;5063940;28;20083;-58
2023/11/21 06:15:14;;;;;;;15.85;5.03;;;;;;;;;;5056971;28;20106;-60
2023/11/21 06:17:42;;;;;;;16.77;5.00;;;;;;;;;;5061121;28;20083;-58
2023/11/21 06:20:13;;;;;;;12.95;5.07;;;;;;;;;;5054645;28;20324;-65
2023/11/21 06:22:41;;;;;;;13.10;5.65;;;;;;;;;;5058227;28;20048;-62
2023/11/21 06:25:10;;;;;;;15.18;4.90;;;;;;;;;;5034407;28;20314;-63
2023/11/21 06:27:39;;;;;;;11.80;4.88;;;;;;;;;;5057880;28;20067;-60
2023/11/21 06:30:09;;;;;;;13.75;4.68;;;;;;;;;;5055457;28;20067;-62
2023/11/21 06:32:36;;;;;;;12.07;4.72;;;;;;;;;;5058492;28;20056;-61
2023/11/21 06:35:03;;;;;;;15.40;6.05;;;;;;;;;;5053887;28;20152;-65
2023/11/21 06:37:30;;;;;;;16.80;6.60;;;;;;;;;;5074753;28;20056;-62
2023/11/21 06:39:58;;;;;;;16.38;6.50;;;;;;;;;;5058155;28;20120;-61
2023/11/21 06:42:26;;;;;;;15.27;6.15;;;;;;;;;;5052695;28;20064;-58
2023/11/21 06:44:53;;;;;;;19.88;8.25;;;;;;;;;;5030603;28;20057;-60
2023/11/21 06:47:20;;;;;;;23.90;7.10;;;;;;;;;;5039581;28;20065;-63
2023/11/21 06:49:48;;;;;;;10.98;4.97;;;;;;;;;;5038693;28;20049;-65
2023/11/21 06:52:15;;;;;;;12.45;5.40;;;;;;;;;;5034549;28;20053;-59
2023/11/21 06:54:42;;;;;;;12.90;5.07;;;;;;;;;;5043840;28;20052;-60
2023/11/21 06:57:08;;;;;;;15.98;6.15;;;;;;;;;;5057121;28;20087;-61
2023/11/21 06:59:36;;;;;;;17.67;8.13;;;;;;;;;;5060046;28;20136;-60
2023/11/21 07:02:04;;;;;;;18.05;7.75;;;;;;;;;;5058166;28;20075;-63
2023/11/21 07:04:31;;;;;;;15.40;5.67;;;;;;;;;;5048922;28;21704;-63
2023/11/21 07:06:58;;;;;;;13.02;5.22;;;;;;;;;;5055188;28;20327;-59
2023/11/21 07:09:25;;;;;;;19.80;5.78;;;;;;;;;;5058207;28;20148;-58
2023/11/21 07:11:52;;;;;;;13.55;4.88;;;;;;;;;;5077594;28;20052;-64
2023/11/21 07:14:19;;;;;;;18.23;5.32;;;;;;;;;;5065106;28;20131;-62
2023/11/21 07:16:48;;;;;;;14.57;5.63;;;;;;;;;;5068642;28;20167;-62
2023/11/21 07:19:15;;;;;;;17.05;5.93;;;;;;;;;;5056340;28;20060;-61
2023/11/21 07:21:41;;;;;;;17.70;7.28;;;;;;;;;;5057793;28;20056;-57
2023/11/21 07:24:09;;;;;;;37.75;15.48;;;;;;;;;;5055062;28;20080;-59
2023/11/21 07:26:36;;;;;;;21.27;8.88;;;;;;;;;;5076021;28;20048;-64
2023/11/21 07:29:04;;;;;;;15.60;5.80;;;;;;;;;;5077667;28;20072;-61
2023/11/21 07:31:34;;;;;;;23.60;7.47;;;;;;;;;;5062110;28;20090;-63
2023/11/21 07:34:03;;;;;;;23.50;6.82;;;;;;;;;;5055045;28;20116;-60
2023/11/21 07:36:32;;;;;;;21.08;7.93;;;;;;;;;;5057986;28;20056;-59
2023/11/21 07:38:59;;;;;;;23.33;10.15;;;;;;;;;;5058657;28;20152;-60
2023/11/21 07:41:26;;;;;;;31.88;13.05;;;;;;;;;;5055400;28;20061;-57
2023/11/21 07:43:53;;;;;;;26.77;9.68;;;;;;;;;;5041993;28;20044;-59
2023/11/21 07:46:20;;;;;;;22.17;8.10;;;;;;;;;;5037666;28;20119;-64
2023/11/21 07:48:46;;;;;;;17.20;6.63;;;;;;;;;;5047226;28;20087;-62
2023/11/21 07:51:14;;;;;;;15.48;6.10;;;;;;;;;;5062578;28;20060;-59
2023/11/21 07:53:41;;;;;;;15.55;6.28;;;;;;;;;;5059807;28;20820;-62
2023/11/21 07:56:10;;;;;;;17.23;5.60;;;;;;;;;;5044442;28;20310;-60
2023/11/21 07:58:37;;;;;;;17.95;5.95;;;;;;;;;;5046317;28;20140;-60
2023/11/21 08:01:04;;;;;;;17.52;6.00;;;;;;;;;;5042653;28;20064;-63
2023/11/21 08:03:31;;;;;;;19.42;6.55;;;;;;;;;;5041505;28;20118;-61
2023/11/21 08:06:00;;;;;;;14.13;5.30;;;;;;;;;;5034876;28;20076;-61
2023/11/21 08:08:29;;;;;;;13.80;5.35;;;;;;;;;;5036304;28;20188;-65
2023/11/21 08:10:57;;;;;;;14.88;5.45;;;;;;;;;;5044063;28;20056;-61
2023/11/21 08:13:24;;;;;;;13.95;5.45;;;;;;;;;;5043327;28;20140;-55
2023/11/21 08:15:51;;;;;;;16.77;7.20;;;;;;;;;;5050458;28;20076;-66
2023/11/21 08:18:17;;;;;;;33.75;15.00;;;;;;;;;;5057382;28;20051;-61
2023/11/21 08:20:47;;;;;;;18.90;6.80;;;;;;;;;;5062797;28;20137;-64
2023/11/21 08:23:16;;;;;;;16.65;6.20;;;;;;;;;;5060817;28;20057;-58
2023/11/21 08:25:46;;;;;;;17.20;7.18;;;;;;;;;;5056533;28;20057;-63
2023/11/21 08:28:14;;;;;;;16.55;5.40;;;;;;;;;;5058164;28;20055;-59
2023/11/21 08:30:41;;;;;;;13.00;4.82;;;;;;;;;;5060090;28;20060;-61
2023/11/21 08:33:08;;;;;;;12.00;5.32;;;;;;;;;;5060621;28;20131;-59
2023/11/21 08:35:36;;;;;;;16.35;6.13;;;;;;;;;;5050832;28;20059;-62
2023/11/21 08:38:03;;;;;;;15.93;5.90;;;;;;;;;;5062450;28;20059;-63
2023/11/21 08:40:29;;;;;;;17.13;6.07;;;;;;;;;;5057447;28;20052;-62
2023/11/21 08:42:58;;;;;;;15.93;5.60;;;;;;;;;;5061390;28;20096;-64
2023/11/21 08:45:25;;;;;;;17.13;5.63;;;;;;;;;;5048686;28;20067;-61
2023/11/21 08:47:51;;;;;;;16.73;6.25;;;;;;;;;;5060835;28;20095;-63
2023/11/21 08:50:19;;;;;;;20.73;6.15;;;;;;;;;;5054690;28;20056;-59
2023/11/21 08:52:46;;;;;;;17.13;6.05;;;;;;;;;;5076936;28;20068;-61
2023/11/21 08:55:13;;;;;;;18.73;6.40;;;;;;;;;;5047322;28;20048;-62
2023/11/21 08:57:41;;;;;;;16.02;6.25;;;;;;;;;;5059177;28;20072;-59
2023/11/21 09:00:11;;;;;;;15.25;6.10;;;;;;;;;;5056636;28;20068;-59
2023/11/21 09:02:38;;;;;;;20.30;6.78;;;;;;;;;;5058043;28;20122;-64
2023/11/21 09:05:08;;;;;;;22.65;7.00;;;;;;;;;;5028311;28;20070;-59
2023/11/21 09:07:35;;;;;;;18.40;6.60;;;;;;;;;;5069878;28;20119;-62
2023/11/21 09:10:12;;;;;;;20.30;7.20;;;;;;;;;;5058660;28;20052;-62
2023/11/21 09:12:39;;;;;;;23.02;6.65;;;;;;;;;;5061161;28;20067;-62
2023/11/21 09:15:11;;;;;;;18.90;6.45;;;;;;;;;;5028523;28;20067;-62
2023/11/21 09:17:40;;;;;;;21.70;7.43;;;;;;;;;;5043244;28;20064;-60
2023/11/21 09:20:11;;;;;;;18.48;6.65;;;;;;;;;;5040748;28;20049;-62
2023/11/21 09:22:38;;;;;;;19.00;6.47;;;;;;;;;;5044681;28;20069;-61
2023/11/21 09:25:06;;;;;;;20.48;7.13;;;;;;;;;;5036238;28;20059;-62
2023/11/21 09:27:32;;;;;;;15.77;6.22;;;;;;;;;;5043327;28;20137;-60
2023/11/21 09:30:01;;;;;;;17.77;6.93;;;;;;;;;;5040609;28;20102;-62
2023/11/21 09:32:36;;;;;;;18.33;6.30;;;;;;;;;;5040243;28;20049;-59
2023/11/21 09:35:08;;;;;;;17.27;6.25;;;;;;;;;;5033020;28;20146;-63
2023/11/21 09:37:35;;;;;;;17.50;6.60;;;;;;;;;;5039698;28;20056;-59
2023/11/21 09:40:12;;;;;;;19.02;6.88;;;;;;;;;;5036317;28;20171;-60
2023/11/21 09:42:41;;;;;;;24.83;7.30;;;;;;;;;;5039585;28;20122;-62
2023/11/21 09:45:17;;;;;;;21.40;8.05;;;;;;;;;;5034844;28;20057;-64
2023/11/21 09:47:44;;;;;;;23.63;7.70;;;;;;;;;;5057128;28;20053;-62
2023/11/21 09:50:18;;;;;;;24.00;7.72;;;;;;;;;;5034654;28;20076;-61
2023/11/21 09:52:57;;;;;;;24.30;7.35;;;;;;;;;;5073979;28;20045;-63
2023/11/21 09:55:28;;;;;;;20.77;7.50;;;;;;;;;;5017719;28;20057;-64
2023/11/21 09:57:56;;;;;;;26.00;8.38;;;;;;;;;;5037336;28;20067;-62
2023/11/21 10:00:24;;;;;;;17.05;6.68;;;;;;;;;;5051521;28;20057;-66
2023/11/21 10:02:53;;;;;;;21.80;6.70;;;;;;;;;;5056406;28;20145;-65
2023/11/21 10:05:22;;;;;;;;;;;;;;;;;;5048665;28;20060;-62
2023/11/21 10:07:50;;;;;;;17.02;5.60;;;;;;;;;;5041565;28;19931;-59
2023/11/21 10:10:19;;;;;;;14.35;5.28;;;;;;;;;;5032590;28;20056;-61
2023/11/21 10:12:53;;;;;;;16.25;6.25;;;;;;;;;;5057948;28;20088;-64
2023/11/21 10:15:22;;;;;;;21.13;5.63;;;;;;;;;;5059790;28;20056;-60
2023/11/21 10:17:53;;;;;;;15.35;5.55;;;;;;;;;;5058293;28;20059;-60
2023/11/21 10:20:21;;;;;;;14.52;5.40;;;;;;;;;;5070939;28;20052;-63
2023/11/21 10:22:48;;;;;;;12.40;4.95;;;;;;;;;;5063288;28;20076;-64
2023/11/21 10:25:15;;;;;;;12.57;5.78;;;;;;;;;;5033570;28;20142;-62
2023/11/21 10:27:43;;;;;;;17.38;6.25;;;;;;;;;;5043167;28;20057;-63
2023/11/21 10:30:12;;;;;;;16.52;5.97;;;;;;;;;;5034925;28;20533;-61
2023/11/21 10:32:40;;;;;;;16.33;5.22;;;;;;;;;;5055185;28;20056;-60
2023/11/21 10:35:10;;;;;;;13.63;5.88;;;;;;;;;;5042606;28;20078;-61
2023/11/21 10:37:39;;;;;;;14.27;5.93;;;;;;;;;;5039839;28;20057;-58
2023/11/21 10:40:09;;;;;;;12.25;5.18;;;;;;;;;;5039338;28;20072;-59
2023/11/21 10:42:35;;;;;;;12.52;6.18;;;;;;;;;;5037019;28;20057;-63
2023/11/21 10:45:05;;;;;;;16.05;5.97;;;;;;;;;;5034555;28;20102;-62
2023/11/21 10:47:32;;;;;;;13.35;5.50;;;;;;;;;;5073613;28;20048;-59
2023/11/21 10:50:01;;;;;;;26.63;8.52;;;;;;;;;;5058243;28;20143;-61
2023/11/21 10:52:28;;;;;;;14.63;5.75;;;;;;;;;;5044535;28;20057;-61
2023/11/21 10:54:59;;;;;;;16.50;6.60;;;;;;;;;;5017953;28;20152;-65
2023/11/21 10:57:27;;;;;;;15.05;5.47;;;;;;;;;;5043695;28;20139;-63
2023/11/21 10:59:55;;;;;;;16.10;5.57;;;;;;;;;;5041553;28;20059;-57
2023/11/21 11:02:25;;;;;;;;;;;;;;;;;;5035511;28;20074;-56
2023/11/21 11:04:55;;;;;;;14.90;5.40;;;;;;;;;;5032945;28;20002;-57
2023/11/21 11:07:25;;;;;;;10.82;4.60;;;;;;;;;;5052729;28;20152;-55
2023/11/21 11:09:52;;;;;;;14.27;5.30;;;;;;;;;;5039076;28;20081;-64
2023/11/21 11:12:20;;;;;;;14.88;4.97;;;;;;;;;;5024134;28;20053;-67
2023/11/21 11:14:48;;;;;;;11.52;5.25;;;;;;;;;;5002725;28;20049;-61
2023/11/21 11:17:16;;;;;;;12.90;5.18;;;;;;;;;;5044355;28;20060;-63
2023/11/21 11:19:42;;;;;;;14.65;4.88;;;;;;;;;;5053765;28;20111;-63
2023/11/21 11:22:21;;;;;;;13.48;4.88;;;;;;;;;;5035286;28;20065;-67
2023/11/21 11:24:59;;;;;;;;;;;;;;;;;;5035062;28;20174;-66
2023/11/21 11:27:38;;;;;;;13.95;4.90;;;;;;;;;;5036501;28;19932;-62
2023/11/21 11:30:16;;;;;;;14.45;4.53;;;;;;;;;;5034236;28;20146;-63
2023/11/21 11:32:56;;;;;;;13.68;5.05;;;;;;;;;;5037097;28;20052;-56
2023/11/21 11:35:31;;;;;;;12.88;5.15;;;;;;;;;;5032146;28;20173;-62
2023/11/21 11:37:58;;;;;;;10.20;4.47;;;;;;;;;;5061220;28;20106;-60
2023/11/21 11:40:39;;;;;;;13.52;5.05;;;;;;;;;;5052609;28;20056;-61
2023/11/21 11:43:07;;;;;;;14.18;5.20;;;;;;;;;;5060068;28;20065;-59
2023/11/21 11:45:41;;;;;;;11.50;4.93;;;;;;;;;;5044256;28;20063;-63
2023/11/21 11:48:14;;;;;;;14.25;5.13;;;;;;;;;;5055464;28;20053;-60
2023/11/21 11:51:03;;;;;;;13.02;5.15;;;;;;;;;;5057838;28;20061;-63
2023/11/21 11:53:36;;;;;;;10.25;4.25;;;;;;;;;;5061120;28;20105;-64
2023/11/21 11:56:22;;;;;;;14.63;5.85;;;;;;;;;;5048685;28;20139;-63
2023/11/21 11:58:52;;;;;;;16.42;5.70;;;;;;;;;;5055427;28;20052;-60
2023/11/21 12:01:19;;;;;;;14.68;5.20;;;;;;;;;;5055727;28;20157;-64
2023/11/21 12:04:30;;;;;;;13.67;5.20;;;;;;;;;;5054590;28;20056;-60
2023/11/21 12:07:00;;;;;;;14.98;5.75;;;;;;;;;;5054085;28;20045;-59
2023/11/21 12:09:27;;;;;;;14.10;4.80;;;;;;;;;;5062208;28;20072;-60
2023/11/21 12:11:56;;;;;;;13.90;4.32;;;;;;;;;;5079999;28;20058;-61
2023/11/21 12:14:24;;;;;;;;;;;;;;;;;;5039521;28;20137;-60
2023/11/21 12:16:51;;;;;;;9.88;3.97;;;;;;;;;;5062471;28;19960;-62
2023/11/21 12:19:18;;;;;;;9.50;3.60;;;;;;;;;;5061440;28;20067;-58
2023/11/21 12:21:45;;;;;;;9.90;3.45;;;;;;;;;;5062312;28;20095;-60
2023/11/21 12:24:13;;;;;;;8.23;3.58;;;;;;;;;;5046255;28;20120;-60
2023/11/21 12:26:40;;;;;;;10.53;3.77;;;;;;;;;;5050922;28;20113;-58
2023/11/21 12:29:07;;;;;;;9.20;3.80;;;;;;;;;;5077853;28;20122;-57
2023/11/21 12:31:35;;;;;;;8.95;3.88;;;;;;;;;;5064322;28;20076;-64
2023/11/21 12:34:03;;;;;;;11.48;4.78;;;;;;;;;;5062945;28;20053;-62
2023/11/21 12:36:34;;;;;;;12.57;4.75;;;;;;;;;;5016726;28;20057;-56
2023/11/21 12:39:02;;;;;;;9.38;4.05;;;;;;;;;;5038090;28;20064;-63
2023/11/21 12:41:30;;;;;;;11.68;4.75;;;;;;;;;;5041962;28;20056;-62
2023/11/21 12:43:57;;;;;;;10.45;4.45;;;;;;;;;;5038380;28;20068;-63
2023/11/21 12:46:25;;;;;;;12.73;4.93;;;;;;;;;;5052618;28;20044;-63
2023/11/21 12:48:54;;;;;;;10.43;4.10;;;;;;;;;;5059529;28;20087;-62
2023/11/21 12:51:22;;;;;;;12.73;4.70;;;;;;;;;;5078247;28;20087;-57
2023/11/21 12:53:49;;;;;;;8.55;3.75;;;;;;;;;;5050955;28;20056;-65
2023/11/21 12:56:17;;;;;;;11.32;4.40;;;;;;;;;;5049636;28;20187;-57
2023/11/21 12:58:46;;;;;;;11.77;4.90;;;;;;;;;;5057455;28;20056;-56
2023/11/21 13:01:18;;;;;;;15.27;4.60;;;;;;;;;;5060703;28;20102;-59
2023/11/21 13:03:48;;;;;;;10.93;4.60;;;;;;;;;;5062049;28;20052;-63
2023/11/21 13:06:16;;;;;;;16.30;5.43;;;;;;;;;;5046543;28;20141;-60
2023/11/21 13:08:45;;;;;;;15.85;5.35;;;;;;;;;;5057809;28;20053;-60
2023/11/21 13:11:13;;;;;;;13.10;4.82;;;;;;;;;;5059085;28;20370;-58
2023/11/21 13:13:42;;;;;;;13.15;5.18;;;;;;;;;;5057459;28;20064;-60
2023/11/21 13:16:09;;;;;;;13.32;5.07;;;;;;;;;;5041425;28;20063;-60
2023/11/21 13:18:36;;;;;;;14.45;5.00;;;;;;;;;;5058377;28;20066;-59
2023/11/21 13:21:10;;;;;;;13.23;5.07;;;;;;;;;;5062186;28;20084;-56
2023/11/21 13:23:40;;;;;;;18.10;6.07;;;;;;;;;;5064964;28;20044;-60
2023/11/21 13:26:24;;;;;;;22.83;9.10;;;;;;;;;;5050490;28;20080;-66
2023/11/21 13:28:50;;;;;;;13.30;5.72;;;;;;;;;;5064029;28;20067;-64
2023/11/21 13:31:26;;;;;;;15.82;6.80;;;;;;;;;;5066821;28;20040;-63
2023/11/21 13:33:58;;;;;;;27.77;11.73;;;;;;;;;;5064607;28;20172;-64
2023/11/21 13:36:30;;;;;;;17.60;6.45;;;;;;;;;;5053756;28;20098;-61
2023/11/21 13:39:07;;;;;;;23.30;6.50;;;;;;;;;;5060324;28;20056;-64
2023/11/21 13:41:33;;;;;;;10.75;4.95;;;;;;;;;;5038283;28;20541;-58
2023/11/21 13:44:15;;;;;;;14.88;5.55;;;;;;;;;;5023074;28;20061;-58
2023/11/21 13:46:42;;;;;;;16.77;7.35;;;;;;;;;;5030009;28;20060;-60
2023/11/21 13:49:09;;;;;;;16.05;5.82;;;;;;;;;;5044877;28;20133;-58
2023/11/21 13:51:40;;;;;;;13.10;5.50;;;;;;;;;;5061530;28;20159;-60
2023/11/21 13:54:09;;;;;;;13.32;4.93;;;;;;;;;;5074225;28;20049;-66
2023/11/21 13:56:44;;;;;;;15.18;5.75;;;;;;;;;;4983811;28;20073;-63
2023/11/21 13:59:19;;;;;;;15.07;5.75;;;;;;;;;;5051711;28;20063;-59
2023/11/21 14:01:57;;;;;;;13.18;5.53;;;;;;;;;;5064006;28;20167;-57
2023/11/21 14:04:50;;;;;;;13.30;5.70;;;;;;;;;;5058271;28;20052;-57
2023/11/21 14:07:26;;;;;;;15.32;5.35;;;;;;;;;;5060811;28;20063;-62
2023/11/21 14:09:58;;;;;;;10.65;4.78;;;;;;;;;;5079797;28;20044;-62
2023/11/21 14:12:25;;;;;;;13.60;4.78;;;;;;;;;;5055080;28;20123;-60
2023/11/21 14:14:51;;;;;;;10.05;3.72;;;;;;;;;;5063946;28;20214;-63
2023/11/21 14:17:18;;;;;;;9.35;3.72;;;;;;;;;;5057883;28;20056;-62
2023/11/21 14:19:45;;;;;;;10.63;3.53;;;;;;;;;;5056337;28;20114;-62
2023/11/21 14:22:12;;;;;;;10.93;3.55;;;;;;;;;;5058811;28;20052;-60
2023/11/21 14:24:43;;;;;;;11.13;3.90;;;;;;;;;;5059847;28;20064;-61
2023/11/21 14:27:12;;;;;;;8.38;3.38;;;;;;;;;;5060097;28;20071;-63
2023/11/21 14:29:43;;;;;;;8.25;2.83;;;;;;;;;;5064050;28;20053;-64
2023/11/21 14:32:14;;;;;;;11.65;4.03;;;;;;;;;;5057171;28;20068;-65
2023/11/21 14:34:42;;;;;;;10.10;3.80;;;;;;;;;;5060972;28;21025;-63
2023/11/21 14:37:10;;;;;;;12.07;4.57;;;;;;;;;;5036402;28;20147;-61
2023/11/21 14:39:43;;;;;;;9.00;3.85;;;;;;;;;;5036517;28;20100;-62